createdAt,value
2016-02-27T00:00:09.043Z,-2.44
2016-02-27T00:01:09.031Z,-2.44
2016-02-27T00:02:09.032Z,-2.42
2016-02-27T00:03:09.019Z,-2.4
2016-02-27T00:04:09.055Z,-2.47
2016-02-27T00:05:08.713Z,-2.52
2016-02-27T00:06:09.027Z,-2.52
2016-02-27T00:07:09.030Z,-2.52
2016-02-27T00:08:09.033Z,-2.47
2016-02-27T00:09:09.036Z,-2.54
2016-02-27T00:10:09.054Z,-2.62
2016-02-27T00:11:09.041Z,-2.57
2016-02-27T00:12:09.059Z,-2.58
2016-02-27T00:13:09.015Z,-2.52
2016-02-27T00:14:09.034Z,-2.66
2016-02-27T00:15:09.021Z,-2.54
2016-02-27T00:16:09.023Z,-2.58
2016-02-27T00:17:09.011Z,-2.58
2016-02-27T00:18:09.014Z,-2.65
2016-02-27T00:19:09.017Z,-2.65
2016-02-27T00:20:09.019Z,-2.62
2016-02-27T00:21:09.006Z,-2.57
2016-02-27T00:22:09.040Z,-2.48
2016-02-27T00:23:09.011Z,-2.52
2016-02-27T00:24:09.030Z,-2.55
2016-02-27T00:25:09.016Z,-2.54
2016-02-27T00:26:09.019Z,-2.57
2016-02-27T00:27:09.006Z,-2.55
2016-02-27T00:28:09.008Z,-2.52
2016-02-27T00:29:09.011Z,-2.55
2016-02-27T00:30:09.030Z,-2.61
2016-02-27T00:31:08.985Z,-2.55
2016-02-27T00:32:09.005Z,-2.65
2016-02-27T00:33:08.991Z,-2.63
2016-02-27T00:34:09.025Z,-2.61
2016-02-27T00:35:08.997Z,-2.54
2016-02-27T00:36:09.000Z,-2.68
2016-02-27T00:37:08.986Z,-2.61
2016-02-27T00:38:08.989Z,-2.72
2016-02-27T00:39:09.054Z,-2.62
2016-02-27T00:40:08.994Z,-2.68
2016-02-27T00:41:09.013Z,-2.72
2016-02-27T00:42:09.046Z,-2.66
2016-02-27T00:43:09.002Z,-2.7
2016-02-27T00:44:09.005Z,-2.69
2016-02-27T00:45:08.992Z,-2.68
2016-02-27T00:46:08.980Z,-2.68
2016-02-27T00:47:08.982Z,-2.68
2016-02-27T00:48:08.984Z,-2.73
2016-02-27T00:49:08.973Z,-2.68
2016-02-27T00:50:08.990Z,-2.69
2016-02-27T00:51:08.977Z,-2.68
2016-02-27T00:52:08.995Z,-2.7
2016-02-27T00:53:08.967Z,-2.7
2016-02-27T00:54:09.032Z,-2.75
2016-02-27T00:55:08.972Z,-2.78
2016-02-27T00:56:08.991Z,-2.76
2016-02-27T00:57:08.978Z,-2.9
2016-02-27T00:58:08.980Z,-2.72
2016-02-27T00:59:08.967Z,-2.8
2016-02-27T01:00:08.970Z,-2.83
2016-02-27T01:01:08.972Z,-2.84
2016-02-27T01:02:08.960Z,-2.87
2016-02-27T01:03:08.963Z,-2.83
2016-02-27T01:04:08.981Z,-2.84
2016-02-27T01:05:08.968Z,-2.86
2016-02-27T01:06:09.002Z,-2.86
2016-02-27T01:07:08.958Z,-2.89
2016-02-27T01:08:08.961Z,-2.83
2016-02-27T01:09:08.979Z,-2.84
2016-02-27T01:10:08.950Z,-2.83
2016-02-27T01:11:08.969Z,-2.9
2016-02-27T01:12:08.955Z,-2.69
2016-02-27T01:13:08.974Z,-2.91
2016-02-27T01:14:08.960Z,-2.86
2016-02-27T01:15:08.948Z,-2.84
2016-02-27T01:16:08.966Z,-2.83
2016-02-27T01:17:08.954Z,-2.87
2016-02-27T01:18:08.784Z,-2.83
2016-02-27T01:19:08.942Z,-2.84
2016-02-27T01:20:08.946Z,-2.84
2016-02-27T01:21:08.949Z,-2.87
2016-02-27T01:22:08.936Z,-2.86
2016-02-27T01:23:08.939Z,-2.84
2016-02-27T01:24:08.942Z,-2.81
2016-02-27T01:25:08.928Z,-2.83
2016-02-27T01:26:08.931Z,-2.86
2016-02-27T01:27:08.933Z,-2.91
2016-02-27T01:28:08.936Z,-2.98
2016-02-27T01:29:08.922Z,-2.91
2016-02-27T01:30:08.925Z,-2.94
2016-02-27T01:31:08.929Z,-2.89
2016-02-27T01:32:08.916Z,-2.93
2016-02-27T01:33:08.918Z,-2.96
2016-02-27T01:34:08.922Z,-3.01
2016-02-27T01:35:08.924Z,-3.04
2016-02-27T01:36:08.927Z,-3.04
2016-02-27T01:37:08.960Z,-2.98
2016-02-27T01:38:08.916Z,-3.01
2016-02-27T01:39:08.935Z,-3.02
2016-02-27T01:40:08.921Z,-2.91
2016-02-27T01:41:08.908Z,-2.94
2016-02-27T01:42:08.911Z,-2.94
2016-02-27T01:43:08.913Z,-3.05
2016-02-27T01:44:08.916Z,-3.04
2016-02-27T01:45:08.919Z,-2.98
2016-02-27T01:46:08.922Z,-2.99
2016-02-27T01:47:08.909Z,-3.02
2016-02-27T01:48:08.896Z,-3.09
2016-02-27T01:49:08.899Z,-3.08
2016-02-27T01:50:08.901Z,-3.09
2016-02-27T01:51:08.904Z,-3.07
2016-02-27T01:52:08.891Z,-3.12
2016-02-27T01:53:08.894Z,-3.14
2016-02-27T01:54:08.928Z,-3.11
2016-02-27T01:55:08.899Z,-3.05
2016-02-27T01:56:08.903Z,-3.11
2016-02-27T01:57:08.905Z,-3.11
2016-02-27T01:58:08.892Z,-3.19
2016-02-27T01:59:08.895Z,-3.15
2016-02-27T02:00:08.897Z,-3.2
2016-02-27T02:01:08.884Z,-3.22
2016-02-27T02:02:08.886Z,-3.17
2016-02-27T02:03:08.905Z,-3.2
2016-02-27T02:04:08.877Z,-3.17
2016-02-27T02:05:08.880Z,-3.14
2016-02-27T02:06:08.883Z,-3.32
2016-02-27T02:07:08.885Z,-3.27
2016-02-27T02:08:08.872Z,-3.26
2016-02-27T02:09:08.874Z,-3.2
2016-02-27T02:10:08.877Z,-3.3
2016-02-27T02:11:08.880Z,-3.32
2016-02-27T02:12:08.882Z,-3.29
2016-02-27T02:13:08.885Z,-3.32
2016-02-27T02:14:08.887Z,-3.4
2016-02-27T02:15:08.875Z,-3.38
2016-02-27T02:16:08.878Z,-3.36
2016-02-27T02:17:08.880Z,-3.43
2016-02-27T02:18:08.868Z,-3.27
2016-02-27T02:19:08.854Z,-3.33
2016-02-27T02:20:08.873Z,-3.38
2016-02-27T02:21:08.859Z,-3.44
2016-02-27T02:22:08.862Z,-3.38
2016-02-27T02:23:08.866Z,-3.47
2016-02-27T02:24:08.853Z,-3.32
2016-02-27T02:25:08.856Z,-3.38
2016-02-27T02:26:08.858Z,-3.37
2016-02-27T02:27:08.861Z,-3.41
2016-02-27T02:28:08.864Z,-3.4
2016-02-27T02:29:08.850Z,-3.41
2016-02-27T02:30:08.853Z,-3.33
2016-02-27T02:31:08.840Z,-3.32
2016-02-27T02:32:08.842Z,-3.32
2016-02-27T02:33:08.845Z,-3.3
2016-02-27T02:34:08.848Z,-3.37
2016-02-27T02:35:08.836Z,-3.3
2016-02-27T02:36:08.853Z,-3.41
2016-02-27T02:37:08.841Z,-3.46
2016-02-27T02:38:08.890Z,-3.44
2016-02-27T02:39:08.846Z,-3.47
2016-02-27T02:40:08.832Z,-3.32
2016-02-27T02:41:08.851Z,-3.43
2016-02-27T02:42:08.839Z,-3.4
2016-02-27T02:43:08.841Z,-3.26
2016-02-27T02:44:08.828Z,-3.41
2016-02-27T02:45:08.846Z,-3.29
2016-02-27T02:46:08.818Z,-3.44
2016-02-27T02:47:08.695Z,-3.37
2016-02-27T02:48:08.823Z,-3.47
2016-02-27T02:49:08.826Z,-3.44
2016-02-27T02:50:08.829Z,-3.4
2016-02-27T02:51:08.816Z,-3.41
2016-02-27T02:52:08.818Z,-3.46
2016-02-27T02:53:08.821Z,-3.41
2016-02-27T02:54:08.824Z,-3.44
2016-02-27T02:55:08.842Z,-3.5
2016-02-27T02:56:08.814Z,-3.4
2016-02-27T02:57:08.816Z,-3.4
2016-02-27T02:58:08.803Z,-3.41
2016-02-27T02:59:08.806Z,-3.48
2016-02-27T03:00:08.808Z,-3.48
2016-02-27T03:01:08.796Z,-3.56
2016-02-27T03:02:08.861Z,-3.48
2016-02-27T03:03:08.801Z,-3.51
2016-02-27T03:04:08.819Z,-3.51
2016-02-27T03:05:08.806Z,-3.5
2016-02-27T03:06:08.794Z,-3.51
2016-02-27T03:07:08.811Z,-3.48
2016-02-27T03:08:08.799Z,-3.47
2016-02-27T03:09:08.942Z,-3.51
2016-02-27T03:10:08.805Z,-3.44
2016-02-27T03:11:08.775Z,-3.53
2016-02-27T03:12:08.794Z,-3.59
2016-02-27T03:13:08.781Z,-3.58
2016-02-27T03:14:08.783Z,-3.53
2016-02-27T03:15:08.786Z,-3.55
2016-02-27T03:16:08.788Z,-3.58
2016-02-27T03:17:08.839Z,-3.59
2016-02-27T03:18:08.779Z,-3.56
2016-02-27T03:19:08.829Z,-3.5
2016-02-27T03:20:08.846Z,-3.47
2016-02-27T03:21:08.787Z,-3.55
2016-02-27T03:22:08.774Z,-3.48
2016-02-27T03:23:08.776Z,-3.47
2016-02-27T03:24:08.779Z,-3.59
2016-02-27T03:25:08.782Z,-3.48
2016-02-27T03:26:08.785Z,-3.53
2016-02-27T03:27:08.787Z,-3.51
2016-02-27T03:28:08.775Z,-3.51
2016-02-27T03:29:08.762Z,-3.51
2016-02-27T03:30:08.764Z,-3.5
2016-02-27T03:31:08.767Z,-3.48
2016-02-27T03:32:08.754Z,-3.56
2016-02-27T03:33:08.756Z,-3.53
2016-02-27T03:34:08.759Z,-3.55
2016-02-27T03:35:08.746Z,-3.53
2016-02-27T03:36:08.750Z,-3.47
2016-02-27T03:37:08.752Z,-3.51
2016-02-27T03:38:08.770Z,-3.47
2016-02-27T03:39:08.758Z,-3.53
2016-02-27T03:40:08.760Z,-3.46
2016-02-27T03:41:08.763Z,-3.47
2016-02-27T03:42:08.593Z,-3.48
2016-02-27T03:43:08.752Z,-3.51
2016-02-27T03:44:08.739Z,-3.5
2016-02-27T03:45:08.742Z,-3.53
2016-02-27T03:46:08.745Z,-3.53
2016-02-27T03:47:08.747Z,-3.53
2016-02-27T03:48:08.735Z,-3.55
2016-02-27T03:49:08.753Z,-3.55
2016-02-27T03:50:08.724Z,-3.53
2016-02-27T03:51:08.711Z,-3.61
2016-02-27T03:52:08.730Z,-3.58
2016-02-27T03:53:08.732Z,-3.58
2016-02-27T03:54:08.735Z,-3.53
2016-02-27T03:55:08.754Z,-3.58
2016-02-27T03:56:08.740Z,-3.58
2016-02-27T03:57:08.728Z,-3.62
2016-02-27T03:58:08.730Z,-3.61
2016-02-27T03:59:08.733Z,-3.64
2016-02-27T04:00:08.720Z,-3.65
2016-02-27T04:01:08.723Z,-3.62
2016-02-27T04:02:08.710Z,-3.64
2016-02-27T04:03:08.712Z,-3.71
2016-02-27T04:04:08.715Z,-3.69
2016-02-27T04:05:08.702Z,-3.77
2016-02-27T04:06:08.705Z,-3.69
2016-02-27T04:07:08.707Z,-3.74
2016-02-27T04:08:08.711Z,-3.75
2016-02-27T04:09:08.714Z,-3.64
2016-02-27T04:10:08.716Z,-3.71
2016-02-27T04:11:08.719Z,-3.74
2016-02-27T04:12:08.690Z,-3.74
2016-02-27T04:13:08.708Z,-3.75
2016-02-27T04:14:08.695Z,-3.75
2016-02-27T04:15:08.697Z,-3.62
2016-02-27T04:16:08.700Z,-3.75
2016-02-27T04:17:08.687Z,-3.69
2016-02-27T04:18:08.690Z,-3.65
2016-02-27T04:19:08.694Z,-3.66
2016-02-27T04:20:08.680Z,-3.71
2016-02-27T04:21:08.683Z,-3.68
2016-02-27T04:22:08.685Z,-3.75
2016-02-27T04:23:08.688Z,-3.74
2016-02-27T04:24:08.675Z,-3.77
2016-02-27T04:25:08.679Z,-3.77
2016-02-27T04:26:08.681Z,-3.75
2016-02-27T04:27:08.668Z,-3.71
2016-02-27T04:28:08.671Z,-3.71
2016-02-27T04:29:08.673Z,-3.74
2016-02-27T04:30:08.664Z,-3.71
2016-02-27T04:31:08.638Z,-3.74
2016-02-27T04:32:08.627Z,-3.75
2016-02-27T04:33:08.617Z,-3.69
2016-02-27T04:34:08.606Z,-3.71
2016-02-27T04:35:08.589Z,-3.74
2016-02-27T04:36:08.586Z,-3.84
2016-02-27T04:37:08.599Z,-3.81
2016-02-27T04:38:08.582Z,-3.8
2016-02-27T04:39:08.563Z,-3.87
2016-02-27T04:40:08.580Z,-3.9
2016-02-27T04:41:08.565Z,-3.85
2016-02-27T04:42:08.550Z,-3.94
2016-02-27T04:43:08.552Z,-3.9
2016-02-27T04:44:08.553Z,-3.91
2016-02-27T04:45:08.540Z,-3.88
2016-02-27T04:46:08.541Z,-3.85
2016-02-27T04:47:08.543Z,-3.94
2016-02-27T04:48:08.560Z,-3.9
2016-02-27T04:49:08.562Z,-3.84
2016-02-27T04:50:08.377Z,-3.95
2016-02-27T04:51:08.536Z,-3.81
2016-02-27T04:52:08.538Z,-3.95
2016-02-27T04:53:08.526Z,-3.94
2016-02-27T04:54:08.528Z,-3.87
2016-02-27T04:55:08.530Z,-3.91
2016-02-27T04:56:08.533Z,-3.88
2016-02-27T04:57:08.520Z,-3.85
2016-02-27T04:58:08.522Z,-3.95
2016-02-27T04:59:08.384Z,-3.91
2016-02-27T05:00:08.511Z,-3.94
2016-02-27T05:01:08.514Z,-3.88
2016-02-27T05:02:08.518Z,-3.88
2016-02-27T05:03:08.520Z,-3.94
2016-02-27T05:04:08.508Z,-3.83
2016-02-27T05:05:08.572Z,-3.84
2016-02-27T05:06:08.513Z,-3.87
2016-02-27T05:07:08.499Z,-3.81
2016-02-27T05:08:08.502Z,-3.81
2016-02-27T05:09:08.505Z,-3.78
2016-02-27T05:10:08.508Z,-3.78
2016-02-27T05:11:08.527Z,-3.75
2016-02-27T05:12:08.497Z,-3.84
2016-02-27T05:13:08.500Z,-3.77
2016-02-27T05:14:08.502Z,-3.77
2016-02-27T05:15:08.505Z,-3.77
2016-02-27T05:16:08.508Z,-3.69
2016-02-27T05:17:08.495Z,-3.77
2016-02-27T05:18:08.499Z,-3.74
2016-02-27T05:19:08.516Z,-3.75
2016-02-27T05:20:08.488Z,-3.74
2016-02-27T05:21:08.475Z,-3.74
2016-02-27T05:22:08.478Z,-3.74
2016-02-27T05:23:08.480Z,-3.78
2016-02-27T05:24:08.483Z,-3.83
2016-02-27T05:25:08.501Z,-3.9
2016-02-27T05:26:08.489Z,-3.88
2016-02-27T05:27:08.492Z,-3.91
2016-02-27T05:28:08.478Z,-3.98
2016-02-27T05:29:08.465Z,-4.02
2016-02-27T05:30:08.484Z,-3.94
2016-02-27T05:31:08.470Z,-3.99
2016-02-27T05:32:08.458Z,-3.95
2016-02-27T05:33:08.460Z,-4.01
2016-02-27T05:34:08.464Z,-3.95
2016-02-27T05:35:08.466Z,-4.08
2016-02-27T05:36:08.469Z,-4.04
2016-02-27T05:37:08.471Z,-3.99
2016-02-27T05:38:08.458Z,-3.98
2016-02-27T05:39:08.460Z,-4.01
2016-02-27T05:40:08.447Z,-3.95
2016-02-27T05:41:08.450Z,-4.02
2016-02-27T05:42:08.453Z,-3.96
2016-02-27T05:43:08.456Z,-3.99
2016-02-27T05:44:08.458Z,-3.87
2016-02-27T05:45:08.446Z,-3.9
2016-02-27T05:46:08.448Z,-4.02
2016-02-27T05:47:08.451Z,-3.98
2016-02-27T05:48:08.469Z,-3.96
2016-02-27T05:49:08.300Z,-3.91
2016-02-27T05:50:08.429Z,-3.9
2016-02-27T05:51:08.431Z,-3.88
2016-02-27T05:52:08.434Z,-3.98
2016-02-27T05:53:08.420Z,-3.94
2016-02-27T05:54:08.439Z,-3.99
2016-02-27T05:55:08.426Z,-3.95
2016-02-27T05:56:08.444Z,-4.08
2016-02-27T05:57:08.431Z,-4.02
2016-02-27T05:58:08.418Z,-4.05
2016-02-27T05:59:08.437Z,-4.01
2016-02-27T06:00:08.408Z,-4.02
2016-02-27T06:01:08.426Z,-4.06
2016-02-27T06:02:08.414Z,-4.02
2016-02-27T06:03:08.447Z,-3.99
2016-02-27T06:04:08.419Z,-4.06
2016-02-27T06:05:08.469Z,-3.94
2016-02-27T06:06:08.408Z,-4.01
2016-02-27T06:07:08.427Z,-3.98
2016-02-27T06:08:08.413Z,-3.96
2016-02-27T06:09:08.417Z,-3.96
2016-02-27T06:10:08.403Z,-3.84
2016-02-27T06:11:08.406Z,-3.9
2016-02-27T06:12:08.393Z,-3.88
2016-02-27T06:13:08.396Z,-3.77
2016-02-27T06:14:08.399Z,-3.75
2016-02-27T06:15:08.416Z,-3.69
2016-02-27T06:16:08.419Z,-3.71
2016-02-27T06:17:08.391Z,-3.75
2016-02-27T06:18:08.394Z,-3.69
2016-02-27T06:19:08.396Z,-3.69
2016-02-27T06:20:08.399Z,-3.74
2016-02-27T06:21:08.402Z,-3.61
2016-02-27T06:22:08.389Z,-3.58
2016-02-27T06:23:08.376Z,-3.58
2016-02-27T06:24:08.378Z,-3.51
2016-02-27T06:25:08.382Z,-3.5
2016-02-27T06:26:08.368Z,-3.51
2016-02-27T06:27:08.387Z,-3.43
2016-02-27T06:28:08.374Z,-3.44
2016-02-27T06:29:08.376Z,-3.33
2016-02-27T06:30:08.379Z,-3.27
2016-02-27T06:31:08.381Z,-3.2
2016-02-27T06:32:08.353Z,-3.17
2016-02-27T06:33:08.356Z,-3.09
2016-02-27T06:34:08.375Z,-3.04
2016-02-27T06:35:08.361Z,-2.99
2016-02-27T06:36:08.364Z,-3.02
2016-02-27T06:37:08.351Z,-2.93
2016-02-27T06:38:08.369Z,-2.86
2016-02-27T06:39:08.403Z,-2.86
2016-02-27T06:40:08.343Z,-2.75
2016-02-27T06:41:08.378Z,-2.69
2016-02-27T06:42:08.349Z,-2.62
2016-02-27T06:43:08.335Z,-2.62
2016-02-27T06:44:08.338Z,-2.47
2016-02-27T06:45:08.341Z,-2.47
2016-02-27T06:46:08.344Z,-2.33
2016-02-27T06:47:08.346Z,-2.29
2016-02-27T06:48:08.334Z,-2.28
2016-02-27T06:49:08.337Z,-2.17
2016-02-27T06:50:08.340Z,-2.14
2016-02-27T06:51:08.343Z,-1.96
2016-02-27T06:52:08.345Z,-1.97
2016-02-27T06:53:08.332Z,-1.84
2016-02-27T06:54:08.335Z,-1.76
2016-02-27T06:55:08.337Z,-1.72
2016-02-27T06:56:08.323Z,-1.71
2016-02-27T06:57:08.326Z,-1.54
2016-02-27T06:58:08.329Z,-1.43
2016-02-27T06:59:08.316Z,-1.38
2016-02-27T07:00:08.320Z,-1.24
2016-02-27T07:01:08.322Z,-1.18
2016-02-27T07:02:08.325Z,-1.04
2016-02-27T07:03:08.312Z,-1
2016-02-27T07:04:08.314Z,-0.85
2016-02-27T07:05:08.317Z,-0.75
2016-02-27T07:06:08.303Z,-0.77
2016-02-27T07:07:08.306Z,-0.74
2016-02-27T07:08:08.310Z,-0.54
2016-02-27T07:09:08.312Z,-0.45
2016-02-27T07:10:08.315Z,-0.3
2016-02-27T07:11:08.317Z,-0.28
2016-02-27T07:12:08.320Z,-0.17
2016-02-27T07:13:08.322Z,-0.12
2016-02-27T07:14:08.310Z,-0.03
2016-02-27T07:15:08.313Z,0.06
2016-02-27T07:16:08.316Z,0.09
2016-02-27T07:17:08.303Z,0.2
2016-02-27T07:18:08.149Z,0.24
2016-02-27T07:19:08.293Z,0.34
2016-02-27T07:20:08.295Z,0.49
2016-02-27T07:22:08.300Z,0.68
2016-02-27T07:23:08.303Z,0.76
2016-02-27T07:24:08.307Z,0.77
2016-02-27T07:25:08.309Z,1.03
2016-02-27T07:26:08.296Z,1.02
2016-02-27T07:27:08.282Z,1.12
2016-02-27T07:28:08.285Z,1.18
2016-02-27T07:29:08.287Z,1.45
2016-02-27T07:30:08.290Z,1.61
2016-02-27T07:31:08.293Z,1.63
2016-02-27T07:32:08.281Z,1.78
2016-02-27T07:33:08.331Z,1.89
2016-02-27T07:34:08.270Z,2
2016-02-27T07:35:08.273Z,1.98
2016-02-27T07:36:08.306Z,2.03
2016-02-27T07:37:08.278Z,2.05
2016-02-27T07:38:08.280Z,2.07
2016-02-27T07:39:08.283Z,2.15
2016-02-27T07:40:08.271Z,2.3
2016-02-27T07:41:08.289Z,2.43
2016-02-27T07:42:08.276Z,2.47
2016-02-27T07:43:08.278Z,2.52
2016-02-27T07:44:08.266Z,2.69
2016-02-27T07:45:08.268Z,2.83
2016-02-27T07:46:08.271Z,2.98
2016-02-27T07:47:08.274Z,3.06
2016-02-27T07:48:08.339Z,3.19
2016-02-27T07:49:08.264Z,3.36
2016-02-27T07:50:08.266Z,3.49
2016-02-27T07:51:08.269Z,3.55
2016-02-27T07:52:08.272Z,3.64
2016-02-27T07:53:08.274Z,3.81
2016-02-27T07:54:08.277Z,4.09
2016-02-27T07:55:08.264Z,4.18
2016-02-27T07:56:08.267Z,4.48
2016-02-27T07:57:08.285Z,4.53
2016-02-27T07:58:08.256Z,4.68
2016-02-27T07:59:08.259Z,4.87
2016-02-27T08:00:08.278Z,5.01
2016-02-27T08:01:08.265Z,5.22
2016-02-27T08:02:08.283Z,5.37
2016-02-27T08:03:08.161Z,5.47
2016-02-27T08:04:08.257Z,5.58
2016-02-27T08:05:08.292Z,5.83
2016-02-27T08:06:08.262Z,5.95
2016-02-27T08:07:08.265Z,6.26
2016-02-27T08:08:08.268Z,6.39
2016-02-27T08:09:08.270Z,6.52
2016-02-27T08:10:08.273Z,6.64
2016-02-27T08:11:08.260Z,6.78
2016-02-27T08:12:08.278Z,7.07
2016-02-27T08:13:08.266Z,7.25
2016-02-27T08:14:08.268Z,7.23
2016-02-27T08:15:08.271Z,7.41
2016-02-27T08:16:08.274Z,7.47
2016-02-27T08:17:08.277Z,7.58
2016-02-27T08:18:08.310Z,7.56
2016-02-27T08:19:08.266Z,7.47
2016-02-27T08:20:08.269Z,7.48
2016-02-27T08:21:08.272Z,7.56
2016-02-27T08:22:08.275Z,7.62
2016-02-27T08:23:08.261Z,7.44
2016-02-27T08:24:08.263Z,7.39
2016-02-27T08:25:08.267Z,7.29
2016-02-27T08:26:08.332Z,7.11
2016-02-27T08:27:08.272Z,6.96
2016-02-27T08:28:08.274Z,6.75
2016-02-27T08:29:08.277Z,6.64
2016-02-27T08:30:08.264Z,6.52
2016-02-27T08:31:08.268Z,6.31
2016-02-27T08:32:08.270Z,6.22
2016-02-27T08:33:08.288Z,6.1
2016-02-27T08:34:08.275Z,6.05
2016-02-27T08:35:08.293Z,6.01
2016-02-27T08:36:08.281Z,5.94
2016-02-27T08:37:08.284Z,5.84
2016-02-27T08:38:08.287Z,5.64
2016-02-27T08:39:08.273Z,5.64
2016-02-27T08:40:08.276Z,5.56
2016-02-27T08:41:08.279Z,5.47
2016-02-27T08:42:08.281Z,5.52
2016-02-27T08:43:08.300Z,5.37
2016-02-27T08:44:08.287Z,5.37
2016-02-27T08:45:08.289Z,5.41
2016-02-27T08:46:08.292Z,5.4
2016-02-27T08:47:08.325Z,5.55
2016-02-27T08:48:08.297Z,5.51
2016-02-27T08:49:08.299Z,5.69
2016-02-27T08:50:08.288Z,5.81
2016-02-27T08:51:08.290Z,5.84
2016-02-27T08:52:08.308Z,5.88
2016-02-27T08:53:08.296Z,5.88
2016-02-27T08:54:08.298Z,5.87
2016-02-27T08:55:08.301Z,5.88
2016-02-27T08:56:08.304Z,5.87
2016-02-27T08:57:08.306Z,5.98
2016-02-27T08:58:08.309Z,5.94
2016-02-27T08:59:08.295Z,6.19
2016-02-27T09:00:08.345Z,6.13
2016-02-27T09:01:08.301Z,5.91
2016-02-27T09:02:08.320Z,6.15
2016-02-27T09:03:08.307Z,6.15
2016-02-27T09:04:08.309Z,6.16
2016-02-27T09:05:08.312Z,6.29
2016-02-27T09:06:08.330Z,6.16
2016-02-27T09:07:08.317Z,6.17
2016-02-27T09:08:08.351Z,6.17
2016-02-27T09:09:08.306Z,6.35
2016-02-27T09:10:08.341Z,6.59
2016-02-27T09:11:08.328Z,6.7
2016-02-27T09:12:08.331Z,6.95
2016-02-27T09:13:08.334Z,7.08
2016-02-27T09:14:08.320Z,7.15
2016-02-27T09:15:08.323Z,7.32
2016-02-27T09:16:08.326Z,7.36
2016-02-27T09:17:08.328Z,7.53
2016-02-27T09:18:08.331Z,7.51
2016-02-27T09:19:08.333Z,7.46
2016-02-27T09:20:08.336Z,7.47
2016-02-27T09:21:08.339Z,7.39
2016-02-27T09:22:08.341Z,7.26
2016-02-27T09:23:08.344Z,7.32
2016-02-27T09:24:08.347Z,7.22
2016-02-27T09:25:08.349Z,7.22
2016-02-27T09:26:08.353Z,7.19
2016-02-27T09:27:08.355Z,7.19
2016-02-27T09:28:08.357Z,7.14
2016-02-27T09:29:08.361Z,7.15
2016-02-27T09:30:08.363Z,7.25
2016-02-27T09:31:08.366Z,7.37
2016-02-27T09:32:08.368Z,7.53
2016-02-27T09:33:08.356Z,7.58
2016-02-27T09:34:08.373Z,7.8
2016-02-27T09:35:08.376Z,7.81
2016-02-27T09:36:08.364Z,7.99
2016-02-27T09:37:08.367Z,7.98
2016-02-27T09:38:08.370Z,8.14
2016-02-27T09:39:08.372Z,8.32
2016-02-27T09:40:08.375Z,8.66
2016-02-27T09:41:08.378Z,8.9
2016-02-27T09:42:08.380Z,9.02
2016-02-27T09:43:08.383Z,9.05
2016-02-27T09:44:08.386Z,9.08
2016-02-27T09:45:08.389Z,8.95
2016-02-27T09:46:08.391Z,8.89
2016-02-27T09:47:08.394Z,8.77
2016-02-27T09:48:08.396Z,8.74
2016-02-27T09:49:08.383Z,8.75
2016-02-27T09:50:08.370Z,8.72
2016-02-27T09:51:08.388Z,8.72
2016-02-27T09:52:08.391Z,8.74
2016-02-27T09:53:08.393Z,8.75
2016-02-27T09:54:08.397Z,8.84
2016-02-27T09:55:08.463Z,8.77
2016-02-27T09:56:08.402Z,8.69
2016-02-27T09:57:08.405Z,8.57
2016-02-27T09:58:08.408Z,8.39
2016-02-27T09:59:08.410Z,8.08
2016-02-27T10:00:08.413Z,7.78
2016-02-27T10:01:08.399Z,7.58
2016-02-27T10:02:08.402Z,7.56
2016-02-27T10:03:08.405Z,7.59
2016-02-27T10:04:08.407Z,7.55
2016-02-27T10:05:08.271Z,7.66
2016-02-27T10:06:08.413Z,7.8
2016-02-27T10:07:08.415Z,8.01
2016-02-27T10:08:08.419Z,7.99
2016-02-27T10:09:08.421Z,8.13
2016-02-27T10:10:08.424Z,7.98
2016-02-27T10:11:08.442Z,7.98
2016-02-27T10:12:08.429Z,7.95
2016-02-27T10:13:08.432Z,7.81
2016-02-27T10:14:08.434Z,7.83
2016-02-27T10:15:08.437Z,7.81
2016-02-27T10:16:08.503Z,7.66
2016-02-27T10:17:08.443Z,7.69
2016-02-27T10:18:08.445Z,7.64
2016-02-27T10:19:08.433Z,7.62
2016-02-27T10:20:08.451Z,7.59
2016-02-27T10:21:08.438Z,7.67
2016-02-27T10:22:08.456Z,7.62
2016-02-27T10:23:08.443Z,7.67
2016-02-27T10:24:08.446Z,7.72
2016-02-27T10:25:08.449Z,7.67
2016-02-27T10:26:08.452Z,7.58
2016-02-27T10:27:08.454Z,7.58
2016-02-27T10:28:08.457Z,7.56
2016-02-27T10:29:08.460Z,7.56
2016-02-27T10:30:08.321Z,7.5
2016-02-27T10:31:08.465Z,7.5
2016-02-27T10:32:08.468Z,7.36
2016-02-27T10:33:08.470Z,7.32
2016-02-27T10:34:08.488Z,7.15
2016-02-27T10:35:08.476Z,6.96
2016-02-27T10:36:08.478Z,6.86
2016-02-27T10:37:08.481Z,6.78
2016-02-27T10:38:08.515Z,6.67
2016-02-27T10:39:08.470Z,6.65
2016-02-27T10:40:08.473Z,6.62
2016-02-27T10:41:08.492Z,6.65
2016-02-27T10:42:08.479Z,6.49
2016-02-27T10:43:08.481Z,6.5
2016-02-27T10:44:08.484Z,6.52
2016-02-27T10:45:08.487Z,6.52
2016-02-27T10:46:08.489Z,6.47
2016-02-27T10:47:08.492Z,6.56
2016-02-27T10:48:08.495Z,6.57
2016-02-27T10:49:08.483Z,6.6
2016-02-27T10:50:08.500Z,6.67
2016-02-27T10:51:08.488Z,6.6
2016-02-27T10:52:08.490Z,6.52
2016-02-27T10:53:08.508Z,6.54
2016-02-27T10:54:08.511Z,6.54
2016-02-27T10:55:08.499Z,6.6
2016-02-27T10:56:08.502Z,6.53
2016-02-27T10:57:08.504Z,6.68
2016-02-27T10:58:08.507Z,6.6
2016-02-27T10:59:08.525Z,6.57
2016-02-27T11:00:08.512Z,6.64
2016-02-27T11:01:08.515Z,6.68
2016-02-27T11:02:08.517Z,6.75
2016-02-27T11:03:08.520Z,6.72
2016-02-27T11:04:08.523Z,6.72
2016-02-27T11:05:08.525Z,6.62
2016-02-27T11:06:08.528Z,6.65
2016-02-27T11:07:08.531Z,6.59
2016-02-27T11:08:08.534Z,6.59
2016-02-27T11:09:08.582Z,6.54
2016-02-27T11:10:08.523Z,6.59
2016-02-27T11:11:08.541Z,6.46
2016-02-27T11:12:08.528Z,6.49
2016-02-27T11:13:08.531Z,6.57
2016-02-27T11:14:08.534Z,6.67
2016-02-27T11:15:08.536Z,6.64
2016-02-27T11:16:08.539Z,6.72
2016-02-27T11:17:08.542Z,6.74
2016-02-27T11:18:08.544Z,6.75
2016-02-27T11:19:08.547Z,6.68
2016-02-27T11:20:08.550Z,6.75
2016-02-27T11:21:08.537Z,6.89
2016-02-27T11:22:08.540Z,6.95
2016-02-27T11:23:08.542Z,7
2016-02-27T11:24:08.545Z,7.03
2016-02-27T11:25:08.548Z,7.04
2016-02-27T11:26:08.597Z,7.14
2016-02-27T11:27:08.553Z,7.11
2016-02-27T11:28:08.571Z,7.18
2016-02-27T11:29:08.559Z,7.19
2016-02-27T11:30:08.561Z,7.21
2016-02-27T11:31:08.564Z,7.26
2016-02-27T11:32:08.583Z,7.31
2016-02-27T11:33:08.568Z,7.29
2016-02-27T11:34:08.571Z,7.36
2016-02-27T11:35:08.637Z,7.32
2016-02-27T11:36:08.437Z,7.33
2016-02-27T11:37:08.580Z,7.25
2016-02-27T11:38:08.599Z,7.26
2016-02-27T11:39:08.570Z,7.28
2016-02-27T11:40:08.604Z,7.26
2016-02-27T11:41:08.590Z,7.21
2016-02-27T11:42:08.593Z,7.11
2016-02-27T11:43:08.581Z,7.25
2016-02-27T11:44:08.583Z,7.23
2016-02-27T11:45:08.634Z,7.23
2016-02-27T11:46:08.604Z,7.31
2016-02-27T11:47:08.592Z,7.26
2016-02-27T11:48:08.594Z,7.21
2016-02-27T11:49:08.612Z,7.21
2016-02-27T11:50:08.599Z,7.28
2016-02-27T11:51:08.617Z,7.14
2016-02-27T11:52:08.652Z,7.15
2016-02-27T11:53:08.608Z,7.07
2016-02-27T11:54:08.579Z,7.07
2016-02-27T11:55:08.628Z,6.97
2016-02-27T11:56:08.600Z,7
2016-02-27T11:57:08.618Z,6.96
2016-02-27T11:58:08.621Z,7.03
2016-02-27T11:59:08.608Z,7.05
2016-02-27T12:00:08.610Z,7.08
2016-02-27T12:01:08.614Z,7.1
2016-02-27T12:02:08.616Z,6.95
2016-02-27T12:03:08.603Z,6.78
2016-02-27T12:04:08.637Z,6.75
2016-02-27T12:05:08.624Z,6.62
2016-02-27T12:06:08.627Z,6.6
2016-02-27T12:07:08.613Z,6.57
2016-02-27T12:08:08.632Z,6.53
2016-02-27T12:09:08.635Z,6.47
2016-02-27T12:10:08.622Z,6.38
2016-02-27T12:11:08.624Z,6.32
2016-02-27T12:12:08.627Z,6.34
2016-02-27T12:13:08.629Z,6.32
2016-02-27T12:14:08.632Z,6.32
2016-02-27T12:15:08.635Z,6.35
2016-02-27T12:16:08.622Z,6.36
2016-02-27T12:17:08.626Z,6.49
2016-02-27T12:18:08.643Z,6.49
2016-02-27T12:19:08.646Z,6.39
2016-02-27T12:20:08.633Z,6.49
2016-02-27T12:21:08.651Z,6.35
2016-02-27T12:22:08.639Z,6.39
2016-02-27T12:23:08.642Z,6.44
2016-02-27T12:24:08.644Z,6.36
2016-02-27T12:25:08.647Z,6.49
2016-02-27T12:26:08.650Z,6.47
2016-02-27T12:27:08.652Z,6.46
2016-02-27T12:28:08.639Z,6.5
2016-02-27T12:29:08.642Z,6.47
2016-02-27T12:30:08.644Z,6.54
2016-02-27T12:31:08.663Z,6.43
2016-02-27T12:32:08.650Z,6.39
2016-02-27T12:33:08.653Z,6.39
2016-02-27T12:34:08.655Z,6.31
2016-02-27T12:35:08.658Z,6.35
2016-02-27T12:36:08.661Z,6.29
2016-02-27T12:37:08.663Z,6.28
2016-02-27T12:38:08.666Z,6.25
2016-02-27T12:39:08.669Z,6.29
2016-02-27T12:40:08.671Z,6.32
2016-02-27T12:41:08.674Z,6.34
2016-02-27T12:42:08.677Z,6.28
2016-02-27T12:43:08.679Z,6.32
2016-02-27T12:44:08.682Z,6.35
2016-02-27T12:45:08.685Z,6.35
2016-02-27T12:46:08.670Z,6.46
2016-02-27T12:47:08.672Z,6.52
2016-02-27T12:48:08.675Z,6.59
2016-02-27T12:49:08.724Z,6.59
2016-02-27T12:50:08.680Z,6.59
2016-02-27T12:51:08.683Z,6.6
2016-02-27T12:52:08.686Z,6.65
2016-02-27T12:53:08.689Z,6.64
2016-02-27T12:54:08.691Z,6.62
2016-02-27T12:55:08.694Z,6.6
2016-02-27T12:56:08.680Z,6.64
2016-02-27T12:57:08.699Z,6.62
2016-02-27T12:58:08.686Z,6.74
2016-02-27T12:59:08.705Z,6.67
2016-02-27T13:00:08.691Z,6.74
2016-02-27T13:01:08.694Z,6.7
2016-02-27T13:02:08.697Z,6.72
2016-02-27T13:03:08.699Z,6.71
2016-02-27T13:04:08.702Z,6.74
2016-02-27T13:05:08.704Z,6.74
2016-02-27T13:06:08.708Z,6.82
2016-02-27T13:07:08.694Z,6.8